createdAt,value
2023-01-22T00:01:41.544Z,102564.56
2023-01-22T00:04:09.431Z,102563.00
2023-01-22T00:06:35.862Z,102551.53
2023-01-22T00:09:03.926Z,102559.81
2023-01-22T00:11:30.673Z,102557.22
2023-01-22T00:13:57.149Z,102557.38
2023-01-22T00:16:23.658Z,102558.38
2023-01-22T00:18:50.143Z,102550.31
2023-01-22T00:21:16.619Z,102554.03
2023-01-22T00:23:43.069Z,102552.34
2023-01-22T00:26:13.665Z,102556.06
2023-01-22T00:28:41.731Z,102553.44
2023-01-22T00:31:09.711Z,102552.75
2023-01-22T00:33:36.155Z,102565.47
2023-01-22T00:36:09.798Z,102560.16
2023-01-22T00:38:36.250Z,102560.16
2023-01-22T00:41:03.526Z,102560.28
2023-01-22T00:43:30.421Z,102559.53
2023-01-22T00:45:56.882Z,102560.56
2023-01-22T00:48:23.349Z,102559.69
2023-01-22T00:50:49.877Z,102553.41
2023-01-22T00:53:16.427Z,102559.84
2023-01-22T00:56:01.714Z,102560.69
2023-01-22T00:58:28.853Z,102555.50
2023-01-22T01:00:55.604Z,102549.94
2023-01-22T01:03:30.319Z,102556.38
2023-01-22T01:05:58.332Z,102548.38
2023-01-22T01:08:25.373Z,102554.66
2023-01-22T01:10:55.905Z,102556.38
2023-01-22T01:13:22.881Z,102560.94
2023-01-22T01:15:49.819Z,102563.81
2023-01-22T01:18:16.846Z,102556.63
2023-01-22T01:20:43.307Z,102562.06
2023-01-22T01:23:09.709Z,102559.50
2023-01-22T01:25:39.377Z,102556.63
2023-01-22T01:28:05.794Z,102557.63
2023-01-22T01:30:32.303Z,102551.47
2023-01-22T01:32:58.761Z,102557.88
2023-01-22T01:35:25.312Z,102556.06
2023-01-22T01:37:52.381Z,102563.31
2023-01-22T01:40:19.059Z,102562.34
2023-01-22T01:42:45.803Z,102561.34
2023-01-22T01:45:21.358Z,102561.50
2023-01-22T01:47:50.548Z,102564.22
2023-01-22T01:50:19.312Z,102566.94
2023-01-22T01:52:45.949Z,102569.66
2023-01-22T01:55:12.752Z,102566.19
2023-01-22T01:57:41.342Z,102570.75
2023-01-22T02:00:10.627Z,102575.19
2023-01-22T02:02:37.009Z,102577.91
2023-01-22T02:05:04.551Z,102579.78
2023-01-22T02:07:31.034Z,102586.22
2023-01-22T02:09:57.785Z,102588.91
2023-01-22T02:12:24.199Z,102587.06
2023-01-22T02:14:50.753Z,102580.88
2023-01-22T02:17:21.227Z,102587.22
2023-01-22T02:19:48.265Z,102592.75
2023-01-22T02:22:15.831Z,102596.31
2023-01-22T02:24:42.228Z,102599.91
2023-01-22T02:27:08.722Z,102608.06
2023-01-22T02:29:35.191Z,102601.91
2023-01-22T02:32:01.798Z,102601.06
2023-01-22T02:34:28.323Z,102597.59
2023-01-22T02:36:55.170Z,102607.34
2023-01-22T02:39:21.722Z,102598.47
2023-01-22T02:41:48.598Z,102605.72
2023-01-22T02:44:14.977Z,102599.44
2023-01-22T02:46:41.352Z,102607.59
2023-01-22T02:49:07.751Z,102605.72
2023-01-22T02:51:34.549Z,102607.47
2023-01-22T02:54:01.000Z,102607.59
2023-01-22T02:56:27.622Z,102603.91
2023-01-22T02:58:54.216Z,102596.72
2023-01-22T03:01:22.373Z,102613.78
2023-01-22T03:03:53.440Z,102610.91
2023-01-22T03:06:21.902Z,102610.06
2023-01-22T03:08:58.748Z,102602.75
2023-01-22T03:11:26.408Z,102601.75
2023-01-22T03:14:12.019Z,102600.78
2023-01-22T03:16:56.843Z,102607.19
2023-01-22T03:19:42.354Z,102603.63
2023-01-22T03:22:09.209Z,102600.78
2023-01-22T03:24:35.646Z,102599.03
2023-01-22T03:27:02.631Z,102605.34
2023-01-22T03:29:29.038Z,102604.47
2023-01-22T03:31:55.440Z,102595.47
2023-01-22T03:34:22.520Z,102597.31
2023-01-22T03:36:48.956Z,102600.31
2023-01-22T03:39:15.388Z,102612.06
2023-01-22T03:41:41.790Z,102608.34
2023-01-22T03:44:11.848Z,102616.59
2023-01-22T03:46:40.208Z,102618.47
2023-01-22T03:49:07.566Z,102612.16
2023-01-22T03:51:34.107Z,102613.03
2023-01-22T03:54:00.629Z,102623.91
2023-01-22T03:56:27.159Z,102623.91
2023-01-22T03:58:53.871Z,102633.03
2023-01-22T04:01:21.716Z,102619.59
2023-01-22T04:03:48.497Z,102621.56
2023-01-22T04:06:15.288Z,102627.88
2023-01-22T04:08:43.154Z,102632.59
2023-01-22T04:11:12.481Z,102631.72
2023-01-22T04:13:39.917Z,102637.25
2023-01-22T04:16:06.663Z,102632.84
2023-01-22T04:18:33.116Z,102634.69
2023-01-22T04:20:59.552Z,102627.41
2023-01-22T04:23:26.038Z,102629.41
2023-01-22T04:25:52.592Z,102633.81
2023-01-22T04:28:19.316Z,102643.84
2023-01-22T04:30:46.441Z,102638.50
2023-01-22T04:33:13.244Z,102639.38
2023-01-22T04:35:39.757Z,102639.38
2023-01-22T04:38:06.965Z,102641.22
2023-01-22T04:40:33.737Z,102636.78
2023-01-22T04:43:00.945Z,102640.50
2023-01-22T04:45:27.398Z,102641.38
2023-01-22T04:47:53.746Z,102639.50
2023-01-22T04:50:21.372Z,102648.66
2023-01-22T04:52:49.727Z,102641.38
2023-01-22T04:55:16.542Z,102648.66
2023-01-22T04:57:43.005Z,102654.94
2023-01-22T05:00:10.632Z,102650.53
2023-01-22T05:02:37.799Z,102666.69
2023-01-22T05:05:04.770Z,102673.09
2023-01-22T05:07:31.226Z,102661.38
2023-01-22T05:09:57.628Z,102658.78
2023-01-22T05:12:24.091Z,102671.25
2023-01-22T05:14:50.518Z,102668.69
2023-01-22T05:17:17.334Z,102671.38
2023-01-22T05:19:43.761Z,102677.69
2023-01-22T05:22:10.112Z,102682.25
2023-01-22T05:24:36.559Z,102693.97
2023-01-22T05:27:03.090Z,102689.50
2023-01-22T05:29:29.509Z,102694.09
2023-01-22T05:31:56.819Z,102695.84
2023-01-22T05:34:23.885Z,102695.84
2023-01-22T05:36:50.374Z,102704.94
2023-01-22T05:39:17.140Z,102695.09
2023-01-22T05:41:44.156Z,102692.50
2023-01-22T05:44:11.501Z,102702.22
2023-01-22T05:46:38.242Z,102702.22
2023-01-22T05:49:04.966Z,102707.66
2023-01-22T05:51:32.523Z,102711.13
2023-01-22T05:53:59.076Z,102716.56
2023-01-22T05:56:25.525Z,102713.09
2023-01-22T05:58:51.974Z,102706.72
2023-01-22T06:01:18.399Z,102714.84
2023-01-22T06:03:44.938Z,102721.16
2023-01-22T06:06:12.633Z,102720.28
2023-01-22T06:08:39.215Z,102718.53
2023-01-22T06:11:08.330Z,102729.41
2023-01-22T06:13:35.208Z,102726.69
2023-01-22T06:16:01.934Z,102726.69
2023-01-22T06:18:28.430Z,102729.28
2023-01-22T06:20:58.657Z,102737.31
2023-01-22T06:23:27.063Z,102742.88
2023-01-22T06:25:54.148Z,102739.16
2023-01-22T06:28:21.093Z,102749.03
2023-01-22T06:30:47.620Z,102745.31
2023-01-22T06:33:14.505Z,102758.91
2023-01-22T06:35:41.282Z,102749.88
2023-01-22T06:38:07.926Z,102753.59
2023-01-22T06:40:34.706Z,102757.31
2023-01-22T06:43:05.133Z,102751.03
2023-01-22T06:45:31.569Z,102763.75
2023-01-22T06:47:58.040Z,102768.28
2023-01-22T06:50:24.470Z,102767.44
2023-01-22T06:52:50.981Z,102760.13
2023-01-22T06:55:17.369Z,102765.56
2023-01-22T06:57:43.790Z,102760.03
2023-01-22T07:00:11.126Z,102762.75
2023-01-22T07:02:37.494Z,102767.06
2023-01-22T07:05:04.071Z,102765.34
2023-01-22T07:07:30.489Z,102757.19
2023-01-22T07:09:56.873Z,102768.06
2023-01-22T07:12:23.356Z,102768.06
2023-01-22T07:14:49.785Z,102760.91
2023-01-22T07:17:16.126Z,102770.75
2023-01-22T07:19:42.588Z,102770.91
2023-01-22T07:22:09.059Z,102762.84
2023-01-22T07:24:35.462Z,102770.91
2023-01-22T07:27:02.865Z,102769.19
2023-01-22T07:29:29.323Z,102772.88
2023-01-22T07:31:55.778Z,102780.16
2023-01-22T07:34:22.492Z,102783.00
2023-01-22T07:36:49.011Z,102781.38
2023-01-22T07:39:15.610Z,102784.97
2023-01-22T07:41:41.999Z,102790.63
2023-01-22T07:44:08.534Z,102787.06
2023-01-22T07:46:35.355Z,102798.91
2023-01-22T07:49:01.822Z,102797.16
2023-01-22T07:51:28.267Z,102799.88
2023-01-22T07:53:55.039Z,102805.19
2023-01-22T07:56:21.535Z,102810.63
2023-01-22T07:58:47.953Z,102807.91
2023-01-22T08:01:17.545Z,102811.41
2023-01-22T08:03:45.071Z,102812.25
2023-01-22T08:06:12.705Z,102814.84
2023-01-22T08:08:39.103Z,102814.84
2023-01-22T08:11:05.500Z,102816.69
2023-01-22T08:13:31.876Z,102820.28
2023-01-22T08:15:58.368Z,102824.63
2023-01-22T08:18:24.769Z,102819.91
2023-01-22T08:20:51.371Z,102830.66
2023-01-22T08:23:17.794Z,102827.94
2023-01-22T08:25:44.189Z,102833.38
2023-01-22T08:28:10.551Z,102836.97
2023-01-22T08:30:55.549Z,102836.09
2023-01-22T08:33:22.600Z,102849.53
2023-01-22T08:35:50.091Z,102844.13
2023-01-22T08:38:16.632Z,102841.41
2023-01-22T08:40:43.162Z,102850.31
2023-01-22T08:43:09.635Z,102848.31
2023-01-22T08:45:36.089Z,102851.88
2023-01-22T08:48:02.668Z,102853.50
2023-01-22T08:50:29.649Z,102850.66
2023-01-22T08:52:56.860Z,102855.00
2023-01-22T08:55:23.433Z,102859.66
2023-01-22T08:57:56.667Z,102861.41
2023-01-22T09:00:23.621Z,102866.59
2023-01-22T09:02:50.142Z,102862.22
2023-01-22T09:05:17.037Z,102864.72
2023-01-22T09:07:43.483Z,102863.00
2023-01-22T09:10:12.291Z,102873.13
2023-01-22T09:12:39.630Z,102873.63
2023-01-22T09:15:06.966Z,102875.09
2023-01-22T09:17:33.424Z,102890.19
2023-01-22T09:19:59.798Z,102885.34
2023-01-22T09:22:26.159Z,102877.06
2023-01-22T09:24:52.582Z,102886.72
2023-01-22T09:27:18.946Z,102893.75
2023-01-22T09:29:45.315Z,102886.34
2023-01-22T09:32:11.829Z,102882.41
2023-01-22T09:34:38.261Z,102895.00
2023-01-22T09:37:07.882Z,102886.72
2023-01-22T09:39:34.295Z,102888.31
2023-01-22T09:42:03.099Z,102892.63
2023-01-22T09:44:38.263Z,102887.94
2023-01-22T09:47:06.901Z,102898.69
2023-01-22T09:49:37.347Z,102902.16
2023-01-22T09:52:05.393Z,102902.03
2023-01-22T09:54:32.828Z,102904.59
2023-01-22T09:57:01.841Z,102894.63
2023-01-22T09:59:32.823Z,102904.34
2023-01-22T10:02:02.140Z,102906.06
2023-01-22T10:04:31.593Z,102909.69
2023-01-22T10:07:00.559Z,102904.97
2023-01-22T10:09:30.050Z,102912.13
2023-01-22T10:11:57.013Z,102907.44
2023-01-22T10:14:26.337Z,102908.31
2023-01-22T10:16:52.851Z,102909.16
2023-01-22T10:19:19.240Z,102910.03
2023-01-22T10:21:47.432Z,102908.16
2023-01-22T10:24:13.847Z,102909.78
2023-01-22T10:26:43.267Z,102915.22
2023-01-22T10:29:14.047Z,102916.94
2023-01-22T10:31:49.199Z,102915.09
2023-01-22T10:34:20.411Z,102904.09
2023-01-22T10:36:52.317Z,102907.69
2023-01-22T10:39:19.677Z,102913.13
2023-01-22T10:41:47.220Z,102896.81
2023-01-22T10:44:23.370Z,102909.25
2023-01-22T10:46:50.923Z,102902.09
2023-01-22T10:49:17.438Z,102898.38
2023-01-22T10:51:45.739Z,102906.44
2023-01-22T10:54:21.216Z,102906.31
2023-01-22T10:56:48.345Z,102899.00
2023-01-22T10:59:23.501Z,102906.31
2023-01-22T11:01:56.245Z,102907.16
2023-01-22T11:04:24.803Z,102902.56
2023-01-22T11:06:53.917Z,102898.00
2023-01-22T11:09:24.596Z,102898.00
2023-01-22T11:11:56.350Z,102901.63
2023-01-22T11:14:26.222Z,102901.47
2023-01-22T11:16:54.159Z,102902.34
2023-01-22T11:19:37.209Z,102910.50
2023-01-22T11:22:06.429Z,102907.63
2023-01-22T11:24:42.823Z,102913.22
2023-01-22T11:27:32.824Z,102912.22
2023-01-22T11:30:14.812Z,102915.78
2023-01-22T11:32:57.765Z,102912.09
2023-01-22T11:35:44.591Z,102909.38
2023-01-22T11:38:34.954Z,102906.78
2023-01-22T11:41:20.211Z,102915.69
2023-01-22T11:43:46.789Z,102915.53
2023-01-22T11:46:25.244Z,102914.69
2023-01-22T11:48:57.394Z,102911.97
2023-01-22T11:51:36.624Z,102910.09
2023-01-22T11:54:22.597Z,102924.50
2023-01-22T11:56:55.356Z,102916.41
2023-01-22T11:59:37.283Z,102917.06
2023-01-22T12:02:03.792Z,102916.34
2023-01-22T12:04:33.198Z,102922.50
2023-01-22T12:07:08.955Z,102914.34
2023-01-22T12:09:43.018Z,102915.19
2023-01-22T12:12:19.301Z,102913.34
2023-01-22T12:14:55.041Z,102916.06
2023-01-22T12:17:40.172Z,102915.09
2023-01-22T12:20:07.055Z,102920.53
2023-01-22T12:22:59.873Z,102912.22
2023-01-22T12:25:34.709Z,102911.38
2023-01-22T12:28:08.901Z,102911.38
2023-01-22T12:30:38.366Z,102910.38
2023-01-22T12:33:05.567Z,102908.50
2023-01-22T12:35:32.347Z,102908.50
2023-01-22T12:38:15.342Z,102908.50
2023-01-22T12:40:44.563Z,102908.41
2023-01-22T12:43:11.176Z,102903.94
2023-01-22T12:45:43.515Z,102905.69
2023-01-22T12:48:24.352Z,102907.50
2023-01-22T12:50:51.841Z,102906.53
2023-01-22T12:53:28.869Z,102912.84
2023-01-22T12:56:09.088Z,102911.97
2023-01-22T12:58:37.221Z,102916.56
2023-01-22T13:01:05.806Z,102923.72
2023-01-22T13:03:33.465Z,102920.00
2023-01-22T13:06:01.002Z,102921.00
2023-01-22T13:08:35.488Z,102912.94
2023-01-22T13:11:03.353Z,102913.56
2023-01-22T13:13:34.963Z,102924.44
2023-01-22T13:16:06.063Z,102929.03
2023-01-22T13:18:41.544Z,102928.03
2023-01-22T13:21:10.055Z,102932.59
2023-01-22T13:23:44.077Z,102929.88
2023-01-22T13:26:18.561Z,102925.31
2023-01-22T13:29:08.366Z,102924.44
2023-01-22T13:31:34.912Z,102931.63
2023-01-22T13:34:08.951Z,102933.34
2023-01-22T13:36:43.876Z,102937.09
2023-01-22T13:39:30.322Z,102936.19
2023-01-22T13:42:05.633Z,102933.34
2023-01-22T13:44:34.079Z,102932.50
2023-01-22T13:47:00.692Z,102936.09
2023-01-22T13:49:28.597Z,102928.91
2023-01-22T13:51:56.827Z,102934.06
2023-01-22T13:54:23.275Z,102929.63
2023-01-22T13:56:49.861Z,102932.34
2023-01-22T13:59:27.629Z,102927.78
2023-01-22T14:01:54.584Z,102925.91
2023-01-22T14:04:28.770Z,102932.34
2023-01-22T14:06:55.289Z,102927.66
2023-01-22T14:09:25.577Z,102943.00
2023-01-22T14:11:52.228Z,102937.56
2023-01-22T14:14:19.628Z,102947.44
2023-01-22T14:16:46.253Z,102944.72
2023-01-22T14:19:16.284Z,102949.44
2023-01-22T14:21:43.101Z,102946.44
2023-01-22T14:24:09.721Z,102951.88
2023-01-22T14:26:36.445Z,102954.75
2023-01-22T14:29:02.997Z,102957.31
2023-01-22T14:31:29.535Z,102951.88
2023-01-22T14:33:55.958Z,102954.59
2023-01-22T14:36:22.348Z,102955.59
2023-01-22T14:38:51.412Z,102950.16
2023-01-22T14:41:17.916Z,102959.19
2023-01-22T14:43:44.359Z,102954.59
2023-01-22T14:46:10.854Z,102959.19
2023-01-22T14:48:38.480Z,102966.47
2023-01-22T14:51:09.433Z,102964.63
2023-01-22T14:53:35.849Z,102966.47
2023-01-22T14:56:02.325Z,102968.19
2023-01-22T14:58:28.665Z,102972.94
2023-01-22T15:00:55.098Z,102965.63
2023-01-22T15:03:21.440Z,102964.75
2023-01-22T15:05:50.825Z,102967.47
2023-01-22T15:08:17.323Z,102966.63
2023-01-22T15:10:46.354Z,102968.47
2023-01-22T15:13:12.797Z,102972.06
2023-01-22T15:15:39.246Z,102970.31
2023-01-22T15:18:05.607Z,102979.38
2023-01-22T15:20:32.140Z,102974.78
2023-01-22T15:23:00.927Z,102980.22
2023-01-22T15:25:27.430Z,102983.91
2023-01-22T15:27:53.839Z,102979.38
2023-01-22T15:30:20.617Z,102977.63
2023-01-22T15:32:47.110Z,102984.91
2023-01-22T15:35:13.596Z,102978.47
2023-01-22T15:37:39.977Z,102989.34
2023-01-22T15:40:06.808Z,102995.69
2023-01-22T15:42:35.627Z,102992.06
2023-01-22T15:45:03.307Z,102993.94
2023-01-22T15:47:29.716Z,103002.00
2023-01-22T15:49:56.122Z,102997.53
2023-01-22T15:52:22.491Z,102998.41
2023-01-22T15:54:53.860Z,103002.00
2023-01-22T15:57:20.596Z,102999.38
2023-01-22T15:59:47.250Z,103003.84
2023-01-22T16:02:13.740Z,103006.56
2023-01-22T16:04:40.218Z,103006.56
2023-01-22T16:07:06.601Z,103005.69
2023-01-22T16:09:33.515Z,103012.00
2023-01-22T16:12:00.079Z,103012.00
2023-01-22T16:14:28.434Z,103022.00
2023-01-22T16:16:55.057Z,103014.75
2023-01-22T16:19:21.437Z,103014.75
2023-01-22T16:21:48.089Z,103015.59
2023-01-22T16:24:14.530Z,103017.47
2023-01-22T16:26:40.947Z,103009.28
2023-01-22T16:29:07.444Z,103017.47
2023-01-22T16:31:34.915Z,103022.91
2023-01-22T16:34:12.545Z,103031.94
2023-01-22T16:36:39.625Z,103029.19
2023-01-22T16:39:06.531Z,103034.75
2023-01-22T16:41:34.284Z,103034.66
2023-01-22T16:44:15.763Z,103033.78
2023-01-22T16:46:43.361Z,103038.34
2023-01-22T16:49:17.890Z,103041.94
2023-01-22T16:51:59.327Z,103041.94
2023-01-22T16:54:30.394Z,103040.19
2023-01-22T16:56:57.787Z,103049.22
2023-01-22T16:59:24.767Z,103044.66
2023-01-22T17:01:51.248Z,103053.69
2023-01-22T17:04:17.696Z,103051.94
2023-01-22T17:06:45.662Z,103051.84
2023-01-22T17:09:13.256Z,103059.13
2023-01-22T17:11:40.065Z,103052.69
2023-01-22T17:14:07.943Z,103056.41
2023-01-22T17:16:34.493Z,103056.28
2023-01-22T17:19:01.013Z,103057.28
2023-01-22T17:21:29.009Z,103064.56
2023-01-22T17:23:55.564Z,103069.03
2023-01-22T17:26:22.033Z,103065.53
2023-01-22T17:28:48.518Z,103079.03
2023-01-22T17:31:16.660Z,103085.34
2023-01-22T17:33:43.573Z,103082.63
2023-01-22T17:36:11.201Z,103088.94
2023-01-22T17:38:38.871Z,103089.78
2023-01-22T17:41:06.868Z,103092.66
2023-01-22T17:43:34.081Z,103090.78
2023-01-22T17:46:00.848Z,103087.22
2023-01-22T17:48:28.153Z,103086.22
2023-01-22T17:50:54.706Z,103090.78
2023-01-22T17:53:21.206Z,103091.66
2023-01-22T17:55:47.600Z,103096.22
2023-01-22T17:58:14.035Z,103092.75
2023-01-22T18:00:40.542Z,103094.38
2023-01-22T18:03:07.026Z,103098.09
2023-01-22T18:05:33.725Z,103101.66
2023-01-22T18:08:00.253Z,103096.22
2023-01-22T18:10:27.738Z,103104.41
2023-01-22T18:12:54.072Z,103108.13
2023-01-22T18:15:21.049Z,103107.97
2023-01-22T18:17:49.452Z,103118.00
2023-01-22T18:20:16.209Z,103120.72
2023-01-22T18:22:42.616Z,103116.28
2023-01-22T18:25:09.173Z,103118.00
2023-01-22T18:27:35.556Z,103116.28
2023-01-22T18:30:01.953Z,103118.00
2023-01-22T18:32:28.822Z,103117.13
2023-01-22T18:34:55.473Z,103125.31
2023-01-22T18:37:21.879Z,103120.72
2023-01-22T18:39:48.342Z,103121.59
2023-01-22T18:42:14.736Z,103128.03
2023-01-22T18:44:41.087Z,103128.88
2023-01-22T18:47:11.196Z,103128.03
2023-01-22T18:49:37.780Z,103136.19
2023-01-22T18:52:04.289Z,103134.19
2023-01-22T18:54:30.801Z,103135.19
2023-01-22T18:56:57.325Z,103142.50
2023-01-22T18:59:23.653Z,103138.78
2023-01-22T19:01:54.241Z,103143.34
2023-01-22T19:04:21.890Z,103146.06
2023-01-22T19:06:52.873Z,103150.53
2023-01-22T19:09:19.695Z,103150.53
2023-01-22T19:11:51.994Z,103142.34
2023-01-22T19:14:19.791Z,103148.66
2023-01-22T19:16:48.484Z,103157.69
2023-01-22T19:19:16.388Z,103152.25
2023-01-22T19:21:46.919Z,103154.84
2023-01-22T19:24:15.325Z,103158.59
2023-01-22T19:26:42.469Z,103156.81
2023-01-22T19:29:13.493Z,103160.53
2023-01-22T19:31:41.731Z,103160.41
2023-01-22T19:34:09.081Z,103158.59
2023-01-22T19:36:38.341Z,103158.59
2023-01-22T19:39:06.815Z,103165.75
2023-01-22T19:41:33.461Z,103164.03
2023-01-22T19:44:01.116Z,103165.00
2023-01-22T19:46:28.239Z,103168.56
2023-01-22T19:48:54.969Z,103172.19
2023-01-22T19:51:22.262Z,103171.19
2023-01-22T19:53:49.065Z,103174.00
2023-01-22T19:56:21.068Z,103179.34
2023-01-22T19:58:48.774Z,103169.31
2023-01-22T20:01:16.273Z,103174.91
2023-01-22T20:03:42.769Z,103170.44
2023-01-22T20:06:10.149Z,103183.06
2023-01-22T20:08:36.869Z,103183.78
2023-01-22T20:11:04.097Z,103179.34
2023-01-22T20:13:30.930Z,103179.34
2023-01-22T20:15:57.575Z,103183.94
2023-01-22T20:18:24.054Z,103192.97
2023-01-22T20:20:57.594Z,103191.22
2023-01-22T20:23:24.551Z,103182.94
2023-01-22T20:25:51.591Z,103190.25
2023-01-22T20:28:18.475Z,103182.06
2023-01-22T20:30:45.385Z,103189.25
2023-01-22T20:33:11.970Z,103191.09
2023-01-22T20:35:44.312Z,103188.25
2023-01-22T20:38:10.710Z,103181.06
2023-01-22T20:40:39.021Z,103185.66
2023-01-22T20:43:05.951Z,103185.66
2023-01-22T20:45:32.399Z,103188.25
2023-01-22T20:47:58.837Z,103181.06
2023-01-22T20:50:25.271Z,103181.06
2023-01-22T20:52:53.188Z,103195.53
2023-01-22T20:55:20.113Z,103189.25
2023-01-22T20:57:46.665Z,103203.72
2023-01-22T21:00:13.408Z,103201.84
2023-01-22T21:02:39.897Z,103200.13
2023-01-22T21:05:06.715Z,103205.44
2023-01-22T21:07:33.417Z,103212.72
2023-01-22T21:09:59.911Z,103212.72
2023-01-22T21:12:27.277Z,103219.03
2023-01-22T21:14:55.104Z,103218.19
2023-01-22T21:17:21.749Z,103222.75
2023-01-22T21:19:48.374Z,103229.06
2023-01-22T21:22:17.263Z,103225.38
2023-01-22T21:24:43.914Z,103223.75
2023-01-22T21:27:10.538Z,103227.22
2023-01-22T21:29:37.464Z,103221.75
2023-01-22T21:32:06.676Z,103229.06
2023-01-22T21:34:33.491Z,103230.81
2023-01-22T21:37:00.036Z,103231.69
2023-01-22T21:39:30.112Z,103229.94
2023-01-22T21:42:19.835Z,103238.00
2023-01-22T21:45:04.840Z,103232.66
2023-01-22T21:47:31.302Z,103224.63
2023-01-22T21:49:57.716Z,103236.25
2023-01-22T21:52:24.236Z,103238.09
2023-01-22T21:54:50.752Z,103241.72
2023-01-22T21:57:17.274Z,103241.72
2023-01-22T21:59:43.929Z,103240.72
2023-01-22T22:02:13.450Z,103241.72
2023-01-22T22:04:39.878Z,103244.44
2023-01-22T22:07:06.470Z,103245.41
2023-01-22T22:09:32.997Z,103249.88
2023-01-22T22:12:00.166Z,103251.69
2023-01-22T22:14:26.644Z,103248.97
2023-01-22T22:16:53.383Z,103240.81
2023-01-22T22:19:20.479Z,103249.88
2023-01-22T22:21:47.239Z,103239.00
2023-01-22T22:24:14.351Z,103246.25
2023-01-22T22:26:40.924Z,103256.28
2023-01-22T22:29:08.103Z,103255.31
2023-01-22T22:31:34.901Z,103267.16
2023-01-22T22:34:01.354Z,103261.72
2023-01-22T22:36:29.115Z,103268.94
2023-01-22T22:38:55.878Z,103265.31
2023-01-22T22:41:26.637Z,103265.31
2023-01-22T22:43:54.255Z,103278.06
2023-01-22T22:46:22.252Z,103271.75
2023-01-22T22:48:48.873Z,103275.31
2023-01-22T22:51:20.330Z,103278.91
2023-01-22T22:53:47.277Z,103271.75
2023-01-22T22:56:14.465Z,103276.19
2023-01-22T22:58:40.942Z,103278.31
2023-01-22T23:01:07.398Z,103272.09
2023-01-22T23:03:35.034Z,103282.13
2023-01-22T23:06:10.398Z,103269.63
2023-01-22T23:08:37.229Z,103279.00
2023-01-22T23:11:07.791Z,103277.50
2023-01-22T23:13:34.895Z,103284.06
2023-01-22T23:16:02.256Z,103297.06
2023-01-22T23:18:29.237Z,103300.97
2023-01-22T23:20:55.748Z,103304.75
2023-01-22T23:23:22.181Z,103302.31
2023-01-22T23:25:48.542Z,103300.53
2023-01-22T23:28:15.139Z,103308.84
2023-01-22T23:30:41.672Z,103314.41
2023-01-22T23:33:08.137Z,103320.94
2023-01-22T23:35:34.643Z,103321.94
2023-01-22T23:38:01.151Z,103330.19
2023-01-22T23:40:27.556Z,103333.03
2023-01-22T23:42:53.914Z,103338.59
2023-01-22T23:45:20.425Z,103329.66
2023-01-22T23:47:46.871Z,103334.25
2023-01-22T23:50:13.425Z,103336.22
2023-01-22T23:52:39.816Z,103339.03
2023-01-22T23:55:06.614Z,103346.47
2023-01-22T23:57:33.058Z,103335.69
